Time;durP1;ratioP1;P1;durP2;ratioP2;P2;SDS_P1;SDS_P2;PMS_P1;PMS_P2;Temp;Humidity;BMP_temperature;BMP_pressure;BME280_temperature;BME280_humidity;BME280_pressure;Samples;Min_cycle;Max_cycle;Signal;HPM_P1;HPM_P2
2022/12/06 00:00:24;;;;;;;;;37.00;30.00;;;;;4.86;71.12;101527.06;5076996;28;46233;-60
2022/12/06 00:02:49;;;;;;;;;41.75;39.00;;;;;4.83;71.48;101512.16;5089672;27;45247;-59
2022/12/06 00:05:15;;;;;;;;;48.50;42.25;;;;;4.88;71.91;101510.31;5079252;27;45304;-61
2022/12/06 00:07:40;;;;;;;;;37.75;32.25;;;;;4.88;71.70;101510.31;5091482;27;45590;-58
2022/12/06 00:10:06;;;;;;;;;42.25;36.50;;;;;4.80;71.80;101503.41;5094934;27;45320;-58
2022/12/06 00:12:32;;;;;;;;;48.50;39.50;;;;;4.83;71.05;101512.16;5095601;27;45372;-59
2022/12/06 00:14:57;;;;;;;;;45.00;39.00;;;;;4.72;71.59;101490.41;5096222;27;45287;-60
2022/12/06 00:17:23;;;;;;;;;39.00;37.50;;;;;4.85;71.64;101504.22;5078429;27;45508;-59
2022/12/06 00:19:49;;;;;;;;;41.00;36.25;;;;;4.82;71.49;101499.00;5088203;27;46192;-59
2022/12/06 00:22:14;;;;;;;;;49.75;43.75;;;;;4.77;72.51;101501.72;5076050;27;45376;-60
2022/12/06 00:24:40;;;;;;;;;49.00;33.50;;;;;4.67;73.14;101500.13;5091316;27;45365;-60
2022/12/06 00:27:05;;;;;;;;;46.00;40.00;;;;;4.65;73.04;101497.53;5076662;28;45321;-60
2022/12/06 00:29:31;;;;;;;;;44.25;42.00;;;;;4.71;73.33;101491.28;5091899;27;46264;-60
2022/12/06 00:31:56;;;;;;;;;42.00;35.00;;;;;4.69;73.13;101483.44;5095940;27;45503;-59
2022/12/06 00:34:22;;;;;;;;;42.25;34.50;;;;;4.61;73.05;101479.19;5096244;27;45381;-58
2022/12/06 00:36:47;;;;;;;;;48.75;36.50;;;;;4.67;73.58;101490.47;5095876;27;45491;-60
2022/12/06 00:39:15;;;;;;;;;40.25;28.75;;;;;4.66;73.70;101480.81;5094971;27;47073;-59
2022/12/06 00:41:41;;;;;;;;;53.00;42.75;;;;;4.66;73.59;101483.44;5096714;27;45482;-59
2022/12/06 00:44:06;;;;;;;;;50.25;41.75;;;;;4.56;73.46;101471.38;5094695;27;45393;-59
2022/12/06 00:46:33;;;;;;;;;49.00;42.00;;;;;4.56;73.18;101471.38;5096911;27;45335;-61
2022/12/06 00:49:00;;;;;;;;;48.50;41.50;;;;;4.65;73.15;101481.72;5095505;27;46099;-59
2022/12/06 00:51:27;;;;;;;;;42.75;39.25;;;;;4.65;74.54;101486.13;5097129;27;45318;-59
2022/12/06 00:53:53;;;;;;;;;42.50;36.25;;;;;4.66;73.54;101483.44;5077332;27;45255;-60
2022/12/06 00:56:18;;;;;;;;;37.50;33.50;;;;;4.54;73.32;101445.91;5095090;27;45284;-61
2022/12/06 00:58:44;;;;;;;;;49.25;43.25;;;;;4.68;73.06;101460.56;5077593;27;45521;-60
2022/12/06 01:01:17;;;;;;;;;42.75;41.75;;;;;4.85;72.76;101478.75;5096177;27;45377;-60
2022/12/06 01:03:44;;;;;;;;;47.75;43.25;;;;;4.83;73.24;101463.84;5096214;27;45454;-61
2022/12/06 01:06:13;;;;;;;;;41.25;37.25;;;;;4.89;72.77;101480.41;5096769;27;45383;-59
2022/12/06 01:08:38;;;;;;;;;37.50;36.75;;;;;4.82;73.58;101462.09;5067302;27;47194;-59
2022/12/06 01:11:04;;;;;;;;;46.75;37.00;;;;;4.92;73.06;101475.06;5075695;27;45816;-60
2022/12/06 01:13:31;;;;;;;;;58.75;45.25;;;;;4.91;72.30;101483.03;5094074;27;45385;-60
2022/12/06 01:15:57;;;;;;;;;61.00;43.25;;;;;4.93;73.46;101475.94;5057898;28;45673;-59
2022/12/06 01:18:23;;;;;;;;;49.50;41.00;;;;;4.97;73.31;101485.56;5082522;27;45545;-60
2022/12/06 01:20:48;;;;;;;;;46.75;38.00;;;;;4.87;73.38;101455.00;5096048;27;45248;-60
2022/12/06 01:23:14;;;;;;;;;39.25;33.00;;;;;4.99;72.49;101476.72;5093635;27;45547;-59
2022/12/06 01:25:50;;;;;;;;;48.50;36.75;;;;;5.00;73.01;101477.59;5077906;27;45608;-60
2022/12/06 01:28:15;;;;;;;;;47.50;37.50;;;;;4.96;73.39;101473.28;5095173;27;45937;-61
2022/12/06 01:30:40;;;;;;;;;46.75;38.00;;;;;4.87;73.33;101476.06;5095945;27;45930;-60
2022/12/06 01:33:06;;;;;;;;;42.25;37.00;;;;;4.82;74.68;101480.53;5094825;27;45809;-60
2022/12/06 01:35:32;;;;;;;;;33.50;30.50;;;;;4.70;74.10;101482.53;5080812;27;45366;-59
2022/12/06 01:37:57;;;;;;;;;37.75;31.75;;;;;4.73;74.72;101485.09;5097615;27;45558;-61
2022/12/06 01:40:22;;;;;;;;;40.50;35.00;;;;;4.74;74.75;101481.56;5081787;27;45437;-61
2022/12/06 01:42:48;;;;;;;;;45.00;39.00;;;;;4.81;74.92;101476.16;5098400;27;45374;-59
2022/12/06 01:45:13;;;;;;;;;44.75;39.25;;;;;4.87;74.33;101473.44;5098775;27;45470;-59
2022/12/06 01:47:42;;;;;;;;;44.75;35.00;;;;;4.91;74.75;101467.19;5080834;27;46225;-59
2022/12/06 01:50:13;;;;;;;;;43.50;40.50;;;;;4.96;74.09;101470.63;5097971;27;45173;-59
2022/12/06 01:52:52;;;;;;;;;44.25;36.00;;;;;4.94;73.63;101468.00;5094651;27;45563;-59
2022/12/06 01:55:20;;;;;;;;;39.00;31.75;;;;;4.89;74.31;101466.38;5078992;28;45246;-60
2022/12/06 01:57:48;;;;;;;;;40.25;30.50;;;;;4.90;73.76;101465.47;5098459;27;45667;-59
2022/12/06 02:00:13;;;;;;;;;48.25;31.50;;;;;5.01;74.59;101474.03;5098290;27;45400;-59
2022/12/06 02:02:39;;;;;;;;;35.50;31.00;;;;;5.03;74.00;101480.16;5096579;27;46901;-59
2022/12/06 02:05:06;;;;;;;;;40.75;34.50;;;;;5.02;74.09;101475.78;5097259;27;45497;-60
2022/12/06 02:07:32;;;;;;;;;40.75;31.50;;;;;5.07;73.42;101484.47;5079714;27;45558;-60
2022/12/06 02:09:58;;;;;;;;;42.75;28.00;;;;;5.00;74.22;101483.72;5078367;27;45240;-63
2022/12/06 02:12:23;;;;;;;;;44.75;37.75;;;;;5.02;74.50;101486.31;5093555;27;45218;-59
2022/12/06 02:14:53;;;;;;;;;48.25;37.50;;;;;5.05;73.89;101486.25;5079184;27;45250;-59
2022/12/06 02:17:43;;;;;;;;;38.00;31.50;;;;;5.08;73.99;101486.22;5097439;27;45527;-60
2022/12/06 02:20:31;;;;;;;;;40.00;33.75;;;;;5.06;73.85;101488.00;5098034;27;45302;-59
2022/12/06 02:23:08;;;;;;;;;34.00;32.50;;;;;5.08;73.82;101480.06;5097337;27;45330;-60
2022/12/06 02:26:10;;;;;;;;;37.75;34.50;;;;;5.06;73.88;101497.69;5087725;27;45516;-60
2022/12/06 02:29:22;;;;;;;;;36.25;29.50;;;;;4.68;74.39;101441.25;5088408;27;45331;-59
2022/12/06 02:31:50;;;;;;;;;41.75;33.75;;;;;4.99;74.03;101487.25;5086064;27;45456;-59
2022/12/06 02:34:41;;;;;;;;;42.50;31.75;;;;;5.01;75.06;101489.88;5093541;27;45371;-58
2022/12/06 02:37:16;;;;;;;;;35.75;26.50;;;;;4.99;73.83;101491.66;5098354;27;45512;-58
2022/12/06 02:39:50;;;;;;;;;40.50;34.50;;;;;5.01;74.74;101492.50;5095699;27;46147;-59
2022/12/06 02:42:31;;;;;;;;;45.00;35.00;;;;;5.07;74.78;101484.47;5092257;27;45744;-60
2022/12/06 02:45:03;;;;;;;;;47.25;33.75;;;;;5.02;74.56;101481.06;5097616;27;45373;-60
2022/12/06 02:47:34;;;;;;;;;37.75;28.75;;;;;5.03;74.64;101483.66;5098014;27;45242;-60
2022/12/06 02:50:04;;;;;;;;;42.25;39.25;;;;;5.07;74.44;101478.31;5098626;27;46207;-61
2022/12/06 02:52:31;;;;;;;;;35.50;34.50;;;;;5.04;74.81;101466.06;5093707;27;45332;-60
2022/12/06 02:55:00;;;;;;;;;36.75;36.25;;;;;5.08;74.31;101475.69;5098227;27;45385;-60
2022/12/06 02:57:43;;;;;;;;;42.75;32.75;;;;;5.05;74.70;101459.91;5096705;27;45320;-62
2022/12/06 03:00:36;;;;;;;;;49.25;37.00;;;;;5.09;75.15;101466.00;5078637;27;46233;-60
2022/12/06 03:03:52;;;;;;;;;47.50;37.75;;;;;5.09;74.84;101476.56;5077908;27;45387;-59
2022/12/06 03:06:39;;;;;;;;;37.25;31.50;;;;;5.11;75.52;101483.53;5033630;28;45375;-61
2022/12/06 03:09:04;;;;;;;;;54.50;39.75;;;;;5.15;74.25;101477.28;5075401;28;45354;-60
2022/12/06 03:11:49;;;;;;;;;39.75;32.50;;;;;5.14;74.45;101474.69;5084984;27;45440;-62
2022/12/06 03:14:20;;;;;;;;;33.75;26.25;;;;;5.14;75.75;101482.59;5096923;27;45371;-60
2022/12/06 03:16:53;;;;;;;;;31.50;31.25;;;;;5.06;75.19;101488.00;5098339;27;45487;-59
2022/12/06 03:19:25;;;;;;;;;47.00;38.00;;;;;5.11;74.48;101480.88;5097333;27;45538;-59
2022/12/06 03:22:05;;;;;;;;;44.00;36.50;;;;;5.06;75.17;101472.19;5078556;27;47198;-59
2022/12/06 03:24:34;;;;;;;;;35.00;33.25;;;;;5.02;75.57;101483.69;5092625;27;45401;-60
2022/12/06 03:27:06;;;;;;;;;43.50;38.25;;;;;5.05;75.17;101486.25;5096749;27;45615;-60
2022/12/06 03:29:36;;;;;;;;;42.50;30.00;;;;;5.08;75.08;101474.78;5097695;27;45294;-61
2022/12/06 03:32:05;;;;;;;;;29.00;24.50;;;;;5.03;75.62;101481.03;5075501;27;45581;-60
2022/12/06 03:34:36;;;;;;;;;61.00;39.50;;;;;5.07;75.72;101481.81;5090954;27;45337;-61
2022/12/06 03:37:04;;;;;;;;;49.00;37.75;;;;;5.04;75.82;101480.13;5097226;27;45933;-60
2022/12/06 03:39:43;;;;;;;;;56.00;37.75;;;;;5.01;76.73;101479.31;5079387;27;45572;-61
2022/12/06 03:42:10;;;;;;;;;56.50;48.50;;;;;5.05;76.69;101488.91;5082161;27;45756;-60
2022/12/06 03:44:36;;;;;;;;;51.00;38.75;;;;;5.13;75.89;101481.72;5077391;28;45216;-60
2022/12/06 03:47:08;;;;;;;;;46.75;41.00;;;;;5.16;76.45;101484.28;5082831;27;45568;-61
2022/12/06 03:49:43;;;;;;;;;40.75;36.50;;;;;5.13;76.59;101481.72;5077584;28;45330;-60
2022/12/06 03:52:09;;;;;;;;;61.50;43.50;;;;;5.10;75.96;101488.84;5085072;27;45379;-62
2022/12/06 03:54:38;;;;;;;;;58.00;40.50;;;;;5.10;75.74;101473.88;5081624;27;45444;-59
2022/12/06 03:57:04;;;;;;;;;49.75;39.50;;;;;5.10;76.53;101473.88;5085756;27;45231;-60
2022/12/06 03:59:29;;;;;;;;;48.75;43.25;;;;;5.07;75.83;101466.00;5080845;27;45597;-61
2022/12/06 04:01:55;;;;;;;;;49.25;37.00;;;;;5.13;76.33;101479.09;5097044;27;46104;-60
2022/12/06 04:04:20;;;;;;;;;50.75;35.75;;;;;5.08;76.47;101485.31;5096779;27;45462;-61
2022/12/06 04:06:45;;;;;;;;;41.25;35.75;;;;;4.97;76.04;101482.91;5096868;27;45406;-61
2022/12/06 04:11:55;;;;;;;;;44.75;35.25;;;;;5.00;76.15;101482.84;5083986;27;45728;-61
2022/12/06 04:14:20;;;;;;;;;40.50;36.25;;;;;5.02;76.20;101476.66;5093110;27;45390;-59
2022/12/06 04:19:29;;;;;;;;;43.75;35.75;;;;;5.00;76.77;101485.50;5078320;27;45224;-61
2022/12/06 04:24:39;;;;;;;;;45.50;36.00;;;;;4.94;76.46;101472.41;5095734;27;45587;-59
2022/12/06 04:40:46;;;;;;;;;37.00;29.75;;;;;4.95;77.76;101479.44;5094526;27;45633;-59
2022/12/06 04:45:56;;;;;;;;;53.75;35.00;;;;;5.06;77.63;101473.94;5093831;27;45560;-59
2022/12/06 04:48:22;;;;;;;;;45.00;37.50;;;;;5.13;77.14;101473.81;5077978;27;45312;-59
2022/12/06 04:50:48;;;;;;;;;50.75;42.00;;;;;5.18;77.43;101466.66;5085085;27;45687;-60
2022/12/06 04:53:14;;;;;;;;;43.25;35.50;;;;;5.18;77.01;101461.41;5075959;27;45411;-59
2022/12/06 04:55:44;;;;;;;;;45.75;35.00;;;;;5.19;76.11;101451.72;5093212;27;45509;-61
2022/12/06 04:58:09;;;;;;;;;51.75;34.50;;;;;5.21;77.02;101466.63;5095239;27;45390;-61
2022/12/06 05:00:35;;;;;;;;;35.25;30.75;;;;;5.22;77.33;101460.44;5093576;27;45387;-60
2022/12/06 05:03:00;;;;;;;;;45.50;37.25;;;;;5.22;76.79;101455.19;5077889;27;45343;-60
2022/12/06 05:05:25;;;;;;;;;48.00;34.00;;;;;5.26;76.57;101458.63;5094947;27;45333;-59
2022/12/06 05:07:51;;;;;;;;;41.75;38.75;;;;;5.27;76.81;101455.94;5090994;27;45340;-60
2022/12/06 05:10:19;;;;;;;;;52.50;42.00;;;;;5.30;76.08;101455.88;5079094;28;45460;-60
2022/12/06 05:12:45;;;;;;;;;41.75;34.75;;;;;5.25;76.51;101457.75;5050800;27;47501;-59
2022/12/06 05:15:10;;;;;;;;;37.50;35.25;;;;;5.22;76.25;101452.53;5096183;27;45292;-60
2022/12/06 05:17:36;;;;;;;;;46.25;39.25;;;;;5.25;77.04;101441.94;5097302;27;45418;-61
2022/12/06 05:20:01;;;;;;;;;46.00;34.75;;;;;5.25;77.25;101449.84;5084011;27;46847;-59
2022/12/06 05:22:31;;;;;;;;;35.25;32.75;;;;;5.24;76.24;101444.59;5099635;27;47500;-58
2022/12/06 05:24:57;;;;;;;;;39.25;33.25;;;;;5.26;76.43;101445.44;5080527;27;45438;-60
2022/12/06 05:27:22;;;;;;;;;43.00;33.50;;;;;5.28;76.68;101444.50;5098424;27;45412;-59
2022/12/06 05:29:50;;;;;;;;;38.00;29.00;;;;;5.35;76.84;101441.75;5085774;27;45628;-60
2022/12/06 05:32:15;;;;;;;;;29.50;29.50;;;;;5.35;75.81;101447.03;5093549;27;45251;-59
2022/12/06 05:34:40;;;;;;;;;35.50;29.75;;;;;5.30;76.38;101441.81;5084513;27;45185;-59
2022/12/06 05:37:06;;;;;;;;;35.00;31.75;;;;;5.27;76.28;101442.75;5098979;27;45438;-61
2022/12/06 05:39:32;;;;;;;;;40.75;28.25;;;;;5.20;76.13;101432.34;5099908;27;45586;-60
2022/12/06 05:41:57;;;;;;;;;35.75;31.75;;;;;5.26;76.78;101443.66;5080401;27;46327;-61
2022/12/06 05:44:22;;;;;;;;;43.00;34.00;;;;;5.26;76.45;101442.78;5099800;27;45198;-61
2022/12/06 05:46:48;;;;;;;;;44.00;34.00;;;;;5.23;76.86;101441.09;5098354;27;45437;-57
2022/12/06 05:49:14;;;;;;;;;38.00;35.50;;;;;5.23;77.30;101441.09;5081757;27;45588;-59
2022/12/06 05:51:39;;;;;;;;;36.25;32.25;;;;;5.20;76.35;101427.06;5098643;27;45825;-60
2022/12/06 05:54:05;;;;;;;;;44.75;32.00;;;;;5.26;76.51;101432.25;5098313;27;45247;-61
2022/12/06 05:56:31;;;;;;;;;41.75;34.75;;;;;5.26;76.72;101435.75;5083209;27;45466;-59
2022/12/06 05:58:56;;;;;;;;;28.75;24.75;;;;;5.30;77.43;101437.41;5091917;27;45338;-60
2022/12/06 06:01:21;;;;;;;;;31.00;29.00;;;;;5.39;77.06;101432.84;5095934;27;45539;-60
2022/12/06 06:03:47;;;;;;;;;36.50;27.75;;;;;5.40;76.90;101439.88;5071101;27;46123;-59
2022/12/06 06:06:13;;;;;;;;;30.50;28.25;;;;;5.38;76.44;101441.66;5096051;27;45535;-61
2022/12/06 06:08:41;;;;;;;;;56.50;33.75;;;;;5.31;77.66;101439.16;5097181;27;45411;-59
2022/12/06 06:11:07;;;;;;;;;43.50;32.25;;;;;5.34;77.73;101440.88;5095763;27;45677;-59
2022/12/06 06:13:32;;;;;;;;;38.75;33.50;;;;;5.38;77.20;101444.31;5093783;27;45523;-60
2022/12/06 06:15:57;;;;;;;;;37.25;32.50;;;;;5.39;77.25;101443.41;5078844;27;45463;-60
2022/12/06 06:18:23;;;;;;;;;40.50;29.75;;;;;5.46;77.49;101429.16;5086296;27;45344;-59
2022/12/06 06:20:53;;;;;;;;;51.50;36.75;;;;;5.53;76.59;101436.94;5097346;27;46175;-59
2022/12/06 06:23:20;;;;;;;;;40.00;31.75;;;;;5.59;77.49;101441.19;5094877;27;45639;-60
2022/12/06 06:25:46;;;;;;;;;40.00;35.50;;;;;5.54;76.70;101427.25;5093496;27;45785;-60
2022/12/06 06:28:11;;;;;;;;;38.00;32.75;;;;;5.57;77.14;101448.28;5098774;27;45601;-60
2022/12/06 06:30:37;;;;;;;;;34.25;26.25;;;;;5.53;77.61;101441.34;5112244;27;46095;-59
2022/12/06 06:33:02;;;;;;;;;38.25;33.00;;;;;5.52;76.98;101444.88;5098530;27;45259;-60
2022/12/06 06:35:28;;;;;;;;;35.25;29.25;;;;;5.44;76.93;101437.13;5098649;27;45449;-61
2022/12/06 06:37:53;;;;;;;;;42.00;32.75;;;;;5.49;77.70;101439.69;5098474;27;45366;-60
2022/12/06 06:40:19;;;;;;;;;35.00;30.75;;;;;5.57;76.97;101448.28;5078967;27;46754;-62
2022/12/06 06:42:44;;;;;;;;;44.50;35.00;;;;;5.67;76.62;101454.22;5096997;27;45362;-58
2022/12/06 06:45:10;;;;;;;;;36.50;30.25;;;;;5.70;76.15;101455.03;5096352;27;45362;-60
2022/12/06 06:47:35;;;;;;;;;53.00;33.00;;;;;5.66;76.83;101440.16;5098527;27;45571;-61
2022/12/06 06:50:01;;;;;;;;;42.00;30.00;;;;;5.73;76.87;101454.97;5079715;27;47863;-61
2022/12/06 06:52:26;;;;;;;;;36.75;31.00;;;;;5.80;76.64;101464.47;5097852;27;45437;-63
2022/12/06 06:54:52;;;;;;;;;33.75;29.00;;;;;5.80;76.93;101450.41;5098472;27;45443;-66
2022/12/06 06:57:17;;;;;;;;;39.75;33.25;;;;;5.95;75.67;101459.78;5098594;27;45421;-65
2022/12/06 06:59:43;;;;;;;;;30.00;23.75;;;;;5.91;75.97;101453.72;5066758;27;45607;-62
2022/12/06 07:02:12;;;;;;;;;37.00;30.50;;;;;5.94;75.86;101447.50;5092017;27;45231;-61
2022/12/06 07:04:38;;;;;;;;;46.25;33.25;;;;;6.04;76.00;101460.44;5096417;27;45227;-61
2022/12/06 07:07:03;;;;;;;;;38.50;35.75;;;;;6.00;75.89;101457.91;5101138;27;45323;-60
2022/12/06 07:09:28;;;;;;;;;29.25;29.25;;;;;5.96;76.07;101464.16;5090267;27;47099;-62
2022/12/06 07:11:54;;;;;;;;;49.75;35.25;;;;;5.88;76.75;101459.03;5086531;27;45505;-59
2022/12/06 07:14:19;;;;;;;;;38.00;35.25;;;;;5.76;76.97;101449.63;5090058;27;45586;-60
2022/12/06 07:16:44;;;;;;;;;40.25;29.25;;;;;5.77;77.65;101459.28;5093839;27;45579;-59
2022/12/06 07:19:10;;;;;;;;;67.25;48.00;;;;;5.84;76.83;101447.66;5084811;27;47084;-57
2022/12/06 07:21:35;;;;;;;;;50.75;41.00;;;;;5.91;76.95;101445.78;5078141;27;46031;-60
2022/12/06 07:24:01;;;;;;;;;42.25;38.50;;;;;6.00;76.32;101444.72;5089862;27;45568;-60
2022/12/06 07:26:27;;;;;;;;;52.50;42.75;;;;;6.06;75.95;101447.19;5087006;27;45510;-62
2022/12/06 07:28:55;;;;;;;;;38.50;29.25;;;;;6.07;76.80;101443.66;5079176;27;48012;-61
2022/12/06 07:31:25;;;;;;;;;42.50;40.50;;;;;6.14;75.97;101450.53;5093804;27;45701;-60
2022/12/06 07:33:56;;;;;;;;;51.75;42.25;;;;;6.15;75.78;101447.00;5095126;27;45511;-62
2022/12/06 07:36:23;;;;;;;;;46.25;36.25;;;;;6.14;76.20;101451.41;5097412;27;45481;-60
2022/12/06 07:38:50;;;;;;;;;40.75;34.25;;;;;6.22;75.77;101452.06;5096887;27;46048;-61
2022/12/06 07:46:46;;;;;;;;;51.00;37.25;;;;;6.19;76.09;101460.06;5095652;27;45639;-62
2022/12/06 07:49:14;;;;;;;;;51.25;41.75;;;;;6.16;75.47;101443.44;5087059;27;45501;-60
2022/12/06 07:51:40;;;;;;;;;45.75;37.75;;;;;6.20;75.68;101445.09;5093128;27;45339;-62
2022/12/06 07:54:06;;;;;;;;;51.75;41.75;;;;;6.13;75.54;101428.53;5081691;27;45729;-62
2022/12/06 07:56:31;;;;;;;;;55.25;44.00;;;;;6.20;75.44;101448.59;5079597;27;45371;-62
2022/12/06 07:58:57;;;;;;;;;55.25;46.25;;;;;6.32;75.84;101450.06;5090776;27;46027;-62
2022/12/06 08:01:22;;;;;;;;;59.00;43.50;;;;;6.29;75.03;101450.16;5060702;28;45480;-62
2022/12/06 08:03:49;;;;;;;;;63.25;46.75;;;;;6.32;75.36;101460.66;5093123;27;45329;-60
2022/12/06 08:06:14;;;;;;;;;54.75;42.50;;;;;6.30;75.93;101464.22;5095195;27;45489;-61
2022/12/06 08:08:40;;;;;;;;;61.00;44.75;;;;;6.22;76.31;101457.34;5095003;27;46180;-59
2022/12/06 08:11:07;;;;;;;;;52.00;43.50;;;;;6.19;76.34;101465.34;5091572;27;46309;-61
2022/12/06 08:13:34;;;;;;;;;58.75;43.00;;;;;6.16;75.50;101462.78;5077206;27;45416;-61
2022/12/06 08:16:04;;;;;;;;;63.00;44.50;;;;;6.23;75.38;101468.78;5093411;27;45235;-62
2022/12/06 08:18:30;;;;;;;;;61.00;45.00;;;;;6.23;75.25;101479.34;5089736;27;46230;-61
2022/12/06 08:20:57;;;;;;;;;61.00;44.50;;;;;6.22;75.74;101480.25;5100829;27;45423;-60
2022/12/06 08:23:22;;;;;;;;;55.75;42.75;;;;;6.13;75.95;101464.66;5093290;27;45421;-60
2022/12/06 08:25:56;;;;;;;;;62.75;48.50;;;;;6.30;75.65;101488.00;5095580;27;45562;-61
2022/12/06 08:28:21;;;;;;;;;59.75;44.00;;;;;6.24;75.28;101489.00;5089012;27;46018;-60
2022/12/06 08:30:47;;;;;;;;;48.50;41.00;;;;;6.15;75.60;101478.69;5085836;27;45446;-61
2022/12/06 08:33:12;;;;;;;;;57.25;43.50;;;;;6.17;75.72;101482.16;5090572;27;46001;-60
2022/12/06 08:35:37;;;;;;;;;49.25;33.75;;;;;6.18;75.11;101484.75;5095003;27;45707;-61
2022/12/06 08:38:03;;;;;;;;;62.25;42.50;;;;;6.29;76.04;101503.00;5093422;27;45471;-62
2022/12/06 08:40:28;;;;;;;;;52.75;42.75;;;;;6.22;75.99;101485.53;5095604;27;45342;-61
2022/12/06 08:42:54;;;;;;;;;51.75;44.25;;;;;6.06;75.86;101484.16;5087864;27;45568;-62
2022/12/06 08:45:19;;;;;;;;;52.25;44.25;;;;;5.93;77.15;101494.16;5081331;27;47421;-62
2022/12/06 08:47:44;;;;;;;;;66.75;45.75;;;;;6.00;77.60;101510.72;5100571;27;46160;-61
2022/12/06 08:50:10;;;;;;;;;51.25;40.50;;;;;5.98;77.35;101513.38;5095436;27;45719;-60
2022/12/06 08:52:35;;;;;;;;;58.50;42.25;;;;;6.03;76.57;101510.66;5096190;27;45529;-72
2022/12/06 08:55:01;;;;;;;;;63.00;45.50;;;;;6.08;77.34;101511.41;5094995;27;45461;-64
2022/12/06 08:57:26;;;;;;;;;64.00;46.75;;;;;6.13;77.19;101512.19;5100805;27;45588;-60
2022/12/06 08:59:52;;;;;;;;;45.00;40.25;;;;;6.18;77.59;101520.88;5097668;27;45501;-59
2022/12/06 09:02:17;;;;;;;;;61.75;41.75;;;;;6.15;76.86;101519.16;5101803;27;45420;-59
2022/12/06 09:04:42;;;;;;;;;48.25;40.50;;;;;5.99;77.68;101514.25;5101215;27;45368;-58
2022/12/06 09:07:08;;;;;;;;;51.50;43.25;;;;;5.97;79.00;101522.19;5101445;27;45353;-62
2022/12/06 09:09:33;;;;;;;;;51.75;40.50;;;;;6.03;78.03;101521.22;5093757;27;45363;-57
2022/12/06 09:11:58;;;;;;;;;62.00;44.00;;;;;6.00;77.87;101516.88;5090613;27;45456;-58
2022/12/06 09:14:24;;;;;;;;;64.25;48.75;;;;;6.04;77.84;101522.94;5089291;27;45568;-55
2022/12/06 09:16:51;;;;;;;;;53.00;42.00;;;;;5.88;78.23;101517.13;5096295;27;46658;-56
2022/12/06 09:19:17;;;;;;;;;55.25;43.25;;;;;5.87;78.34;101499.53;5099956;27;45496;-57
2022/12/06 09:21:45;;;;;;;;;47.25;39.25;;;;;5.91;78.12;101507.38;5098424;27;45470;-60
2022/12/06 09:24:15;;;;;;;;;57.00;45.25;;;;;6.00;77.52;101532.72;5097419;27;45326;-59
2022/12/06 09:26:40;;;;;;;;;52.25;42.00;;;;;5.88;78.31;101515.34;5094940;27;46116;-57
2022/12/06 09:29:07;;;;;;;;;54.50;38.00;;;;;5.93;78.59;101543.44;5081578;27;45558;-58
2022/12/06 09:31:32;;;;;;;;;58.50;45.00;;;;;5.86;78.90;101530.34;5089032;27;45447;-58
2022/12/06 09:33:58;;;;;;;;;47.75;36.50;;;;;5.83;81.73;101518.97;5103545;27;45291;-50
2022/12/06 09:36:26;;;;;;;;;53.00;40.75;;;;;5.87;80.33;101526.81;5065191;28;47150;-52
2022/12/06 09:39:05;;;;;;;;;47.50;35.50;;;;;5.61;80.39;101502.75;5064958;28;45626;-52
2022/12/06 09:41:58;;;;;;;;;49.50;39.25;;;;;5.71;80.26;101537.69;5091317;27;45400;-50
2022/12/06 09:44:29;;;;;;;;;53.50;41.25;;;;;5.69;79.79;101537.75;5082719;27;45575;-61
2022/12/06 09:47:00;;;;;;;;;72.75;48.00;;;;;5.69;80.67;101543.03;5103465;27;46169;-59
2022/12/06 09:50:04;;;;;;;;;53.00;45.00;;;;;5.76;80.88;101538.50;5103761;27;45434;-59
2022/12/06 09:53:06;;;;;;;;;54.00;38.00;;;;;5.78;80.01;101540.19;5103653;27;45516;-60
2022/12/06 09:55:45;;;;;;;;;58.75;43.00;;;;;5.83;79.37;101545.38;5089332;27;45571;-62
2022/12/06 09:58:22;;;;;;;;;52.75;43.25;;;;;5.87;79.76;101547.94;5098881;27;45399;-59
2022/12/06 10:00:53;;;;;;;;;58.75;44.75;;;;;5.89;79.75;101547.91;5080736;27;45414;-58
2022/12/06 10:03:37;;;;;;;;;48.25;30.25;;;;;5.88;80.61;101549.66;5099082;27;45275;-57
2022/12/06 10:06:11;;;;;;;;;39.25;36.25;;;;;5.86;80.89;101540.91;5099507;27;45287;-59
2022/12/06 10:09:09;;;;;;;;;64.50;43.00;;;;;5.80;80.42;101541.03;5081158;27;46037;-60
2022/12/06 10:12:06;;;;;;;;;36.25;31.00;;;;;5.96;79.88;101546.00;5100135;27;45459;-61
2022/12/06 10:15:06;;;;;;;;;58.25;44.00;;;;;5.87;79.62;101545.28;5081132;27;45413;-65
2022/12/06 10:17:58;;;;;;;;;59.00;43.00;;;;;5.87;81.05;101547.94;5079161;28;45309;-62
2022/12/06 10:20:34;;;;;;;;;41.75;37.75;;;;;5.91;80.06;101552.25;5078818;27;46120;-61
2022/12/06 10:23:24;;;;;;;;;53.00;43.00;;;;;5.91;79.91;101544.34;5059733;28;45374;-57
2022/12/06 10:26:25;;;;;;;;;46.75;40.25;;;;;5.87;80.16;101537.38;5078440;28;45458;-61
2022/12/06 10:29:30;;;;;;;;;45.00;39.75;;;;;5.92;81.28;101542.56;5078100;28;45550;-60
2022/12/06 10:32:31;;;;;;;;;43.75;38.25;;;;;5.98;81.26;101538.91;5059934;28;47231;-64
2022/12/06 10:35:05;;;;;;;;;64.50;45.50;;;;;5.99;80.42;101543.28;5020901;28;45545;-62
2022/12/06 10:37:42;;;;;;;;;26.50;18.50;;;;;6.00;80.76;101545.94;5089021;27;45368;-58
2022/12/06 10:40:33;;;;;;;;;63.75;47.00;;;;;6.05;81.26;101544.03;5098892;27;45400;-60
2022/12/06 10:43:11;;;;;;;;;56.25;45.25;;;;;6.07;80.91;101541.38;5077860;27;46323;-62
2022/12/06 10:49:08;;;;;;;;;55.75;42.25;;;;;6.06;81.07;101542.25;5078080;28;45313;-59
2022/12/06 10:51:48;;;;;;;;;61.00;42.25;;;;;6.01;80.25;101538.88;5092489;27;45554;-58
2022/12/06 10:54:25;;;;;;;;;68.75;49.00;;;;;6.03;80.51;101543.22;5098216;27;46091;-59
2022/12/06 10:56:55;;;;;;;;;46.75;41.25;;;;;6.01;81.65;101538.88;5096966;27;45357;-60
2022/12/06 10:59:36;;;;;;;;;64.25;50.25;;;;;5.90;81.10;101528.53;5098832;27;45409;-59
2022/12/06 11:02:19;;;;;;;;;60.25;46.25;;;;;5.88;81.27;101528.53;5098611;27;45385;-58
2022/12/06 11:04:46;;;;;;;;;57.00;44.75;;;;;5.83;82.42;101530.41;5097993;27;45379;-61
2022/12/06 11:07:20;;;;;;;;;60.75;46.00;;;;;5.84;82.52;101540.03;5097386;27;45227;-58
2022/12/06 11:09:51;;;;;;;;;62.50;49.50;;;;;5.85;82.43;101528.59;5098842;27;45793;-58
2022/12/06 11:12:30;;;;;;;;;55.00;38.75;;;;;5.90;81.97;101521.50;5080371;27;45509;-58
2022/12/06 11:15:03;;;;;;;;;66.50;46.50;;;;;5.96;82.25;101527.53;5097341;27;45743;-57
2022/12/06 11:17:41;;;;;;;;;62.25;49.25;;;;;6.00;82.64;101522.16;5073120;27;45419;-58
2022/12/06 11:20:28;;;;;;;;;62.25;48.00;;;;;6.07;82.81;101525.53;5043967;28;45757;-59
2022/12/06 11:23:04;;;;;;;;;53.75;41.25;;;;;6.11;81.47;101528.03;5077980;27;45435;-60
2022/12/06 11:26:00;;;;;;;;;58.25;44.50;;;;;6.08;81.37;101516.69;5077853;27;47673;-63
2022/12/06 11:28:37;;;;;;;;;61.75;46.50;;;;;6.17;82.03;101519.13;5059894;28;45352;-61
2022/12/06 11:31:14;;;;;;;;;42.75;40.50;;;;;6.19;82.03;101518.19;5059121;28;45401;-60
2022/12/06 11:33:40;;;;;;;;;43.75;40.00;;;;;6.13;81.35;101514.84;5077586;28;45776;-62
2022/12/06 11:36:07;;;;;;;;;58.00;45.75;;;;;6.19;81.52;101519.97;5059378;27;45514;-60
2022/12/06 11:38:36;;;;;;;;;59.75;44.50;;;;;6.21;82.04;101504.94;5077599;28;45355;-62
2022/12/06 11:41:06;;;;;;;;;60.50;47.25;;;;;6.14;81.78;101501.59;5065519;27;45469;-61
2022/12/06 11:43:34;;;;;;;;;65.75;50.00;;;;;6.18;82.77;101499.72;5098793;27;45230;-61
2022/12/06 11:46:01;;;;;;;;;52.50;41.00;;;;;6.17;81.95;101508.56;5097997;27;45475;-58
2022/12/06 11:48:31;;;;;;;;;65.50;47.00;;;;;6.09;82.63;101494.66;5098178;27;45373;-61
2022/12/06 11:50:56;;;;;;;;;69.00;50.75;;;;;6.04;82.67;101491.25;5080242;27;45208;-62
2022/12/06 11:53:28;;;;;;;;;52.75;45.00;;;;;5.98;83.03;101473.78;5098314;27;45279;-59
2022/12/06 11:56:05;;;;;;;;;63.75;49.25;;;;;6.04;82.81;101491.25;5097652;27;46223;-61
2022/12/06 11:58:40;;;;;;;;;66.50;47.25;;;;;6.03;82.57;101485.13;5097902;27;45260;-60
2022/12/06 12:01:09;;;;;;;;;57.25;46.00;;;;;6.17;82.60;101487.44;5097345;27;45417;-62
2022/12/06 12:03:37;;;;;;;;;65.25;49.25;;;;;6.15;83.05;101469.00;5078866;27;45386;-61